Watts Bar Observed Data For Previous 48 Hours

Caption
Day and Hour Reservoir Elevation (behind dam)* Tailwater Elevation (below dam)* Average Hourly Discharge*
8/18/2018 2 AM EDT 740.61 682.94 9,907
8/18/2018 3 AM EDT 740.62 683.01 9,881
8/18/2018 4 AM EDT 740.64 683.36 9,874
8/18/2018 5 AM EDT 740.66 683.45 9,856
8/18/2018 6 AM EDT 740.70 683.33 9,853
8/18/2018 7 AM EDT 740.68 683.34 9,867
8/18/2018 8 AM EDT 740.62 683.27 9,855
8/18/2018 9 AM EDT 740.61 683.20 9,872
8/18/2018 10 AM EDT 740.62 683.26 9,860
8/18/2018 11 AM EDT 740.64 683.37 9,904
8/18/2018 12 PM EDT 740.68 683.44 9,862
8/18/2018 1 PM EDT 740.68 683.51 9,916
8/18/2018 2 PM EDT 740.65 683.46 9,906
8/18/2018 3 PM EDT 740.70 683.44 9,901
8/18/2018 4 PM EDT 740.69 683.49 10,101
8/18/2018 5 PM EDT 740.71 683.83 19,183
8/18/2018 6 PM EDT 740.78 683.78 19,631
8/18/2018 7 PM EDT 740.84 683.62 19,780
8/18/2018 8 PM EDT 740.90 682.98 10,240
8/18/2018 9 PM EDT 740.98 682.95 9,906
8/18/2018 10 PM EDT 741.00 682.92 9,891
8/18/2018 11 PM EDT 741.01 682.97 9,898
8/19/2018 12 AM EDT 741.06 683.18 9,855
8/19/2018 1 AM EDT 741.11 683.47 9,870
8/19/2018 2 AM EDT 741.09 683.48 9,857
8/19/2018 3 AM EDT 741.04 683.32 9,864
8/19/2018 4 AM EDT 741.05 683.21 9,889
8/19/2018 5 AM EDT 741.06 683.18 9,871
8/19/2018 6 AM EDT 741.04 683.18 9,918
8/19/2018 7 AM EDT 741.04 683.26 9,874
8/19/2018 8 AM EDT 741.04 683.37 9,887
8/19/2018 9 AM EDT 741.05 683.45 9,889
8/19/2018 10 AM EDT 741.05 683.42 9,895
8/19/2018 11 AM EDT 741.04 683.38 9,901
8/19/2018 12 PM EDT 741.06 683.31 9,900
8/19/2018 1 PM EDT 741.10 683.32 9,901
8/19/2018 2 PM EDT 741.11 683.35 9,904
8/19/2018 3 PM EDT 741.15 683.38 9,890
8/19/2018 4 PM EDT 741.17 683.52 10,054
8/19/2018 5 PM EDT 741.19 683.92 19,074
8/19/2018 6 PM EDT 741.23 683.84 19,846
8/19/2018 7 PM EDT 741.29 683.78 19,837
8/19/2018 8 PM EDT 741.31 683.58 19,916
8/19/2018 9 PM EDT 741.40 682.98 10,266
8/19/2018 10 PM EDT 741.43 682.92 9,951
8/19/2018 11 PM EDT 741.44 682.92 9,924
8/20/2018 12 AM EDT 741.47 683.16 9,942
8/20/2018 1 AM EDT 741.49 683.56 9,899
8/20/2018 2 AM EDT 741.48 683.59 9,900
8/20/2018 3 AM EDT 741.45 683.53 9,909
8/20/2018 4 AM EDT 741.41 683.46 9,949
8/20/2018 5 AM EDT 741.40 683.27 9,957
8/20/2018 6 AM EDT 741.40 683.21 9,932
8/20/2018 7 AM EDT 741.42 683.29 9,928
8/20/2018 8 AM EDT 741.41 683.41 9,881
8/20/2018 9 AM EDT 741.40 683.55 9,900
8/20/2018 10 AM EDT 741.40 683.59 9,875
8/20/2018 11 AM EDT 741.36 683.66 10,127
8/20/2018 12 PM EDT 741.31 683.84 19,675

Elevations are in feet above sea level. Discharges are in cubic feet per second and are reported at the end of the hour.